This is the latest recevied weather packets stored in our database for station/object WD4IXD-WX. If no packets are shown the sender has not sent any weather packets the latest 10 day(s).
| Time | Temp. | Humidity | Pressure | Rain* | Wind** | Luminosity | Snow |
|---|---|---|---|---|---|---|---|
| 1777987204 | -0.56° C | 92% | 1014.7 hPa | 0 mm | - | 70 W/m² | - |
| 1777986903 | -0.56° C | 92% | 1014.7 hPa | 0 mm | - | 79 W/m² | - |
| 1777986604 | -0.56° C | 92% | 1014.7 hPa | 0 mm | - | 76 W/m² | - |
| 1777986303 | -0.56° C | 92% | 1014.5 hPa | 0 mm | - | 72 W/m² | - |
| 1777986004 | -0.56° C | 92% | 1014.4 hPa | 0 mm | - | 62 W/m² | - |
| 1777985703 | -1.11° C | 91% | 1014.4 hPa | 0 mm | - | 56 W/m² | - |
| 1777985404 | -1.11° C | 92% | 1014.4 hPa | 0 mm | - | 49 W/m² | - |
| 1777985104 | -1.11° C | 92% | 1014.3 hPa | 0 mm | - | 42 W/m² | - |
| 1777984804 | -1.11° C | 91% | 1014.4 hPa | 0 mm | - | 39 W/m² | - |
| 1777984504 | -1.11° C | 91% | 1014.4 hPa | 0 mm | - | 32 W/m² | - |
| 1777984204 | -1.11° C | 91% | 1014.4 hPa | 0 mm | - | 28 W/m² | - |
| 1777983904 | -1.11° C | 91% | 1014.5 hPa | 0 mm | - | 25 W/m² | - |
| 1777983604 | -1.11° C | 91% | 1014.2 hPa | 0 mm | - | 12 W/m² | - |
| 1777983304 | -1.11° C | 91% | 1014.4 hPa | 0 mm | - | 11 W/m² | - |
| 1777983003 | -1.11° C | 91% | 1014.3 hPa | 0 mm | - | 5 W/m² | - |
| 1777982704 | -0.56° C | 91% | 1014.2 hPa | 0 mm | - | 0 W/m² | - |
| 1777982404 | -0.56° C | 91% | 1014.2 hPa | 0 mm | - | 0 W/m² | - |
| 1777982104 | -0.56° C | 91% | 1014.3 hPa | 0 mm | - | 0 W/m² | - |
| 1777981804 | -0.56° C | 91% | 1014.5 hPa | 0 mm | - | 0 W/m² | - |
| 1777981504 | -0.56° C | 91% | 1014.5 hPa | 0 mm | - | 0 W/m² | - |
| 1777981204 | -0.56° C | 91% | 1014.6 hPa | 0 mm | - | 0 W/m² | - |
| 1777980904 | -0.56° C | 91% | 1014.5 hPa | 0 mm | - | 0 W/m² | - |
| 1777980604 | -0.56° C | 91% | 1014.5 hPa | 0 mm | - | 0 W/m² | - |
| 1777980304 | -0.56° C | 91% | 1014.6 hPa | 0 mm | - | 0 W/m² | - |
| 1777980004 | -0.56° C | 91% | 1014.5 hPa | 0 mm | - | 0 W/m² | - |
* Rain latest hour (hover to see other rain measurements)
** Current wind speed in m/s (hover to see current wind gust speed)